createdAt,value
2022-08-26T00:03:28.225Z,72.70
2022-08-26T00:08:08.887Z,72.80
2022-08-26T00:12:37.879Z,74.90
2022-08-26T00:16:26.105Z,74.60
2022-08-26T00:20:43.902Z,72.60
2022-08-26T00:25:04.240Z,74.20
2022-08-26T00:29:13.054Z,73.40
2022-08-26T00:34:00.499Z,75.10
2022-08-26T00:37:57.694Z,73.50
2022-08-26T00:42:31.631Z,73.90
2022-08-26T00:47:04.448Z,75.20
2022-08-26T00:51:15.164Z,75.40
2022-08-26T00:59:21.872Z,73.60
2022-08-26T01:03:48.397Z,74.60
2022-08-26T01:07:36.609Z,74.70
2022-08-26T01:11:41.739Z,73.80
2022-08-26T01:15:42.643Z,74.40
2022-08-26T01:28:55.250Z,75.60
2022-08-26T01:32:49.395Z,75.00
2022-08-26T01:37:14.689Z,74.20
2022-08-26T01:41:27.201Z,74.60
2022-08-26T01:45:18.239Z,74.30
2022-08-26T01:49:28.476Z,74.40
2022-08-26T02:02:05.606Z,74.50
2022-08-26T02:06:02.135Z,75.20
2022-08-26T02:10:14.599Z,74.90
2022-08-26T02:14:16.064Z,74.80
2022-08-26T02:18:16.099Z,74.70
2022-08-26T02:22:51.300Z,75.20
2022-08-26T02:31:15.573Z,74.70
2022-08-26T02:35:36.503Z,75.50
2022-08-26T02:39:52.221Z,75.20
2022-08-26T02:44:23.806Z,75.10
2022-08-26T02:48:47.099Z,75.20
2022-08-26T02:57:20.623Z,75.60
2022-08-26T03:22:41.029Z,76.10
2022-08-26T03:28:32.680Z,76.10
2022-08-26T03:32:46.033Z,76.10
2022-08-26T03:36:58.032Z,76.70
2022-08-26T03:45:22.282Z,76.40
2022-08-26T03:54:33.781Z,77.70
2022-08-26T03:59:18.055Z,76.80
2022-08-26T04:03:16.972Z,76.80
2022-08-26T04:07:15.684Z,76.40
2022-08-26T04:15:50.047Z,76.70
2022-08-26T04:22:12.616Z,76.70
2022-08-26T04:38:06.318Z,78.00
2022-08-26T04:42:21.091Z,76.80
2022-08-26T04:52:07.181Z,77.50
2022-08-26T05:05:58.059Z,77.30
2022-08-26T05:26:23.381Z,78.10
2022-08-26T12:13:38.848Z,35.80
2022-08-26T12:17:31.166Z,36.90
2022-08-26T12:21:55.318Z,37.00
2022-08-26T12:25:49.995Z,37.00
2022-08-26T12:29:48.717Z,37.00
2022-08-26T12:33:56.369Z,37.10
2022-08-26T12:42:43.031Z,38.30
2022-08-26T12:56:08.840Z,39.60
2022-08-26T12:59:51.426Z,39.60
2022-08-26T13:04:02.696Z,39.20
2022-08-26T13:07:47.701Z,40.30
2022-08-26T13:11:57.931Z,40.20
2022-08-26T13:16:37.887Z,41.90
2022-08-26T13:25:34.938Z,41.10
2022-08-26T13:29:23.586Z,42.70
2022-08-26T13:33:33.058Z,41.90
2022-08-26T13:37:40.053Z,43.30
2022-08-26T13:42:10.248Z,41.80
2022-08-26T13:50:40.969Z,42.70
2022-08-26T13:54:47.547Z,41.50
2022-08-26T13:59:28.317Z,41.60
2022-08-26T14:03:54.792Z,41.90
2022-08-26T14:07:37.907Z,42.10
2022-08-26T14:11:25.815Z,41.70
2022-08-26T14:15:15.056Z,42.50
2022-08-26T14:19:35.552Z,42.60
2022-08-26T14:23:46.995Z,43.10
2022-08-26T14:28:03.322Z,42.40
2022-08-26T14:45:21.528Z,43.10
2022-08-26T14:49:16.054Z,43.80
2022-08-26T14:57:44.691Z,45.10
2022-08-26T15:01:30.833Z,44.20
2022-08-26T15:27:28.406Z,45.30
2022-08-26T15:39:58.000Z,46.00
2022-08-26T15:48:29.466Z,45.80
2022-08-26T15:56:56.299Z,45.90
2022-08-26T17:12:05.571Z,47.50
2022-08-26T18:20:34.121Z,49.10
2022-08-26T18:24:19.390Z,49.30
2022-08-26T18:28:18.859Z,49.60
2022-08-26T18:32:20.950Z,49.80
2022-08-26T18:36:49.258Z,50.00
2022-08-26T18:41:08.820Z,52.00
2022-08-26T18:49:10.388Z,52.40
2022-08-26T18:52:53.972Z,51.00
2022-08-26T18:56:45.051Z,51.30
2022-08-26T19:00:36.268Z,52.20
2022-08-26T19:04:30.104Z,51.80
2022-08-26T19:08:15.524Z,54.00
2022-08-26T19:16:15.970Z,53.10
2022-08-26T19:20:04.567Z,53.60
2022-08-26T19:24:21.102Z,53.00
2022-08-26T19:37:52.502Z,55.80
2022-08-26T19:41:41.936Z,54.40
2022-08-26T19:45:33.889Z,54.30
2022-08-26T19:50:30.199Z,55.80
2022-08-26T19:59:50.586Z,56.70
2022-08-26T20:03:15.985Z,57.00
2022-08-26T20:07:02.934Z,55.00
2022-08-26T20:10:46.736Z,55.20
2022-08-26T20:14:32.971Z,55.40
2022-08-26T20:19:32.496Z,55.70
2022-08-26T20:23:18.913Z,59.20
2022-08-26T20:27:09.316Z,56.00
2022-08-26T20:30:54.155Z,56.80
2022-08-26T20:34:37.481Z,56.40
2022-08-26T20:38:22.323Z,56.70
2022-08-26T20:42:38.332Z,57.00
2022-08-26T20:46:24.657Z,60.60
2022-08-26T20:50:14.587Z,57.50
2022-08-26T20:54:01.291Z,58.40
2022-08-26T20:58:10.964Z,58.00
2022-08-26T21:07:33.106Z,58.40
2022-08-26T21:11:19.540Z,61.70
2022-08-26T21:15:02.737Z,58.50
2022-08-26T21:18:47.432Z,58.70
2022-08-26T21:22:31.186Z,58.80
2022-08-26T21:26:20.611Z,59.10
2022-08-26T21:30:10.901Z,59.40
2022-08-26T21:33:54.233Z,59.30
2022-08-26T21:37:38.136Z,59.40
2022-08-26T21:41:25.507Z,59.60
2022-08-26T21:45:09.068Z,59.80
2022-08-26T21:49:02.414Z,59.80
2022-08-26T21:52:45.867Z,60.90
2022-08-26T21:56:41.948Z,60.10
2022-08-26T22:00:25.256Z,63.70
2022-08-26T22:04:09.909Z,60.40
2022-08-26T22:07:52.641Z,60.60
2022-08-26T22:12:25.482Z,60.60
2022-08-26T22:15:42.735Z,60.90
2022-08-26T22:19:34.086Z,60.90
2022-08-26T22:23:33.651Z,61.00
2022-08-26T22:27:40.417Z,61.10
2022-08-26T22:31:37.514Z,63.00
2022-08-26T22:35:29.091Z,61.40
2022-08-26T22:39:23.033Z,61.80
2022-08-26T22:43:06.374Z,62.10
2022-08-26T22:46:52.690Z,61.60
2022-08-26T22:50:39.753Z,61.70
2022-08-26T22:54:22.537Z,61.80
2022-08-26T22:58:18.428Z,61.80
2022-08-26T23:02:54.638Z,61.90
2022-08-26T23:06:51.310Z,63.40
2022-08-26T23:11:00.977Z,62.10
2022-08-26T23:14:52.281Z,62.10
2022-08-26T23:18:49.762Z,62.20
2022-08-26T23:23:02.252Z,63.90
2022-08-26T23:27:08.391Z,62.70
2022-08-26T23:57:42.843Z,67.50
